createdAt,value
2023-05-24T00:00:41.096Z,96.60
2023-05-24T00:03:09.007Z,96.60
2023-05-24T00:05:37.801Z,96.70
2023-05-24T00:08:05.517Z,97.00
2023-05-24T00:10:32.650Z,96.90
2023-05-24T00:13:01.458Z,97.10
2023-05-24T00:15:28.475Z,97.00
2023-05-24T00:17:55.991Z,97.10
2023-05-24T00:20:26.417Z,97.10
2023-05-24T00:22:53.909Z,97.30
2023-05-24T00:25:21.350Z,97.40
2023-05-24T00:27:48.373Z,97.70
2023-05-24T00:30:17.155Z,98.20
2023-05-24T00:32:44.695Z,98.10
2023-05-24T00:35:16.783Z,97.80
2023-05-24T00:37:45.617Z,98.00
2023-05-24T00:40:18.921Z,97.90
2023-05-24T00:42:46.418Z,97.90
2023-05-24T00:45:13.592Z,97.90
2023-05-24T00:47:45.513Z,97.80
2023-05-24T00:50:14.431Z,98.00
2023-05-24T00:52:43.052Z,98.40
2023-05-24T00:55:11.175Z,98.60
2023-05-24T00:57:38.798Z,98.30
2023-05-24T01:00:08.421Z,98.60
2023-05-24T01:02:38.954Z,98.80
2023-05-24T01:05:18.842Z,99.20
2023-05-24T01:08:02.133Z,99.20
2023-05-24T01:10:41.451Z,99.20
2023-05-24T01:13:23.603Z,98.60
2023-05-24T01:16:00.247Z,98.50
2023-05-24T01:18:33.088Z,98.50
2023-05-24T01:21:16.208Z,98.80
2023-05-24T01:24:00.967Z,98.50
2023-05-24T01:26:39.459Z,98.20
2023-05-24T01:29:08.490Z,98.30
2023-05-24T01:31:37.200Z,98.50
2023-05-24T01:34:04.755Z,98.40
2023-05-24T01:36:31.875Z,98.10
2023-05-24T01:38:59.176Z,97.30
2023-05-24T01:41:38.552Z,97.00
2023-05-24T01:44:16.576Z,96.70
2023-05-24T01:46:50.390Z,96.60
2023-05-24T01:49:26.887Z,96.50
2023-05-24T01:52:00.271Z,96.60
2023-05-24T01:54:32.316Z,96.40
2023-05-24T01:57:01.173Z,96.40
2023-05-24T02:02:17.559Z,96.10
2023-05-24T02:04:51.316Z,96.00
2023-05-24T02:07:19.288Z,96.00
2023-05-24T02:09:46.392Z,96.00
2023-05-24T02:12:14.120Z,96.00
2023-05-24T02:14:42.779Z,96.30
2023-05-24T02:17:10.490Z,96.30
2023-05-24T02:19:37.528Z,96.50
2023-05-24T02:22:05.400Z,96.50
2023-05-24T02:24:32.419Z,96.40
2023-05-24T02:27:00.101Z,96.60
2023-05-24T02:29:30.132Z,96.80
2023-05-24T02:31:58.540Z,96.70
2023-05-24T02:34:26.218Z,96.80
2023-05-24T02:36:56.601Z,96.80
2023-05-24T02:39:23.723Z,96.80
2023-05-24T02:41:51.241Z,96.70
2023-05-24T02:44:18.748Z,97.30
2023-05-24T02:46:46.064Z,97.10
2023-05-24T02:49:15.119Z,97.30
2023-05-24T02:51:42.630Z,97.30
2023-05-24T02:54:09.660Z,97.30
2023-05-24T02:56:37.891Z,97.40
2023-05-24T02:59:05.242Z,97.10
2023-05-24T03:01:34.857Z,97.00
2023-05-24T03:04:02.772Z,97.10
2023-05-24T03:06:31.240Z,97.10
2023-05-24T03:08:59.725Z,97.00
2023-05-24T03:11:27.479Z,97.00
2023-05-24T03:13:55.113Z,96.90
2023-05-24T03:16:22.775Z,96.70
2023-05-24T03:18:55.266Z,96.60
2023-05-24T03:21:26.295Z,96.60
2023-05-24T03:23:54.824Z,96.50
2023-05-24T03:26:22.425Z,96.60
2023-05-24T03:28:51.160Z,96.70
2023-05-24T03:31:20.705Z,96.70
2023-05-24T03:33:47.843Z,96.70
2023-05-24T03:36:15.940Z,96.60
2023-05-24T03:38:42.960Z,96.60
2023-05-24T03:41:11.767Z,96.60
2023-05-24T03:43:39.378Z,96.60
2023-05-24T03:46:09.915Z,96.80
2023-05-24T03:48:36.982Z,96.90
2023-05-24T03:51:04.397Z,97.00
2023-05-24T03:53:32.703Z,96.70
2023-05-24T03:56:02.568Z,96.90
2023-05-24T03:58:31.354Z,96.90
2023-05-24T04:00:58.670Z,96.80
2023-05-24T04:03:26.334Z,96.70
2023-05-24T04:05:54.294Z,96.70
2023-05-24T04:11:06.606Z,96.70
2023-05-24T04:13:35.427Z,96.70
2023-05-24T04:16:02.689Z,96.90
2023-05-24T04:18:30.085Z,97.30
2023-05-24T04:20:57.929Z,97.40
2023-05-24T04:23:25.207Z,97.50
2023-05-24T04:25:52.925Z,97.50
2023-05-24T04:28:22.182Z,97.70
2023-05-24T04:30:52.360Z,97.80
2023-05-24T04:33:20.447Z,97.70
2023-05-24T04:35:48.359Z,97.50
2023-05-24T04:38:15.966Z,97.40
2023-05-24T04:40:44.049Z,97.50
2023-05-24T04:43:12.431Z,97.00
2023-05-24T04:48:25.402Z,97.10
2023-05-24T04:50:56.445Z,97.40
2023-05-24T04:53:24.477Z,96.70
2023-05-24T04:55:53.049Z,96.70
2023-05-24T04:58:20.791Z,96.70
2023-05-24T05:00:51.513Z,96.70
2023-05-24T05:03:21.665Z,96.50
2023-05-24T05:05:50.132Z,96.50
2023-05-24T05:08:17.693Z,96.60
2023-05-24T05:10:45.340Z,96.50
2023-05-24T05:13:12.846Z,96.40
2023-05-24T05:15:41.610Z,96.40
2023-05-24T05:18:10.476Z,96.30
2023-05-24T05:20:38.162Z,96.50
2023-05-24T05:23:06.716Z,96.60
2023-05-24T05:25:34.255Z,97.00
2023-05-24T05:28:01.905Z,97.00
2023-05-24T05:30:33.768Z,97.10
2023-05-24T05:33:01.495Z,96.30
2023-05-24T05:35:29.297Z,96.50
2023-05-24T05:37:56.259Z,96.50
2023-05-24T05:40:25.076Z,96.40
2023-05-24T05:45:36.807Z,96.40
2023-05-24T05:48:04.064Z,96.20
2023-05-24T05:53:16.798Z,95.80
2023-05-24T05:55:45.307Z,95.70
2023-05-24T05:58:12.312Z,95.80
2023-05-24T06:00:41.265Z,95.90
2023-05-24T06:03:08.554Z,95.30
2023-05-24T06:05:36.057Z,95.10
2023-05-24T06:08:03.168Z,94.70
2023-05-24T06:10:30.634Z,94.60
2023-05-24T06:12:59.041Z,94.50
2023-05-24T06:15:26.875Z,94.50
2023-05-24T06:17:55.285Z,94.20
2023-05-24T06:20:23.402Z,94.00
2023-05-24T06:22:51.211Z,93.70
2023-05-24T06:25:20.815Z,93.90
2023-05-24T06:27:48.351Z,92.70
2023-05-24T06:30:17.145Z,92.40
2023-05-24T06:32:44.589Z,92.30
2023-05-24T06:35:11.792Z,92.10
2023-05-24T06:37:38.862Z,92.10
2023-05-24T06:40:09.925Z,91.90
2023-05-24T06:42:37.262Z,91.50
2023-05-24T06:45:05.119Z,91.50
2023-05-24T06:47:33.651Z,91.40
2023-05-24T06:50:02.659Z,91.20
2023-05-24T06:52:29.648Z,90.20
2023-05-24T06:54:56.773Z,90.50
2023-05-24T06:57:24.473Z,90.30
2023-05-24T06:59:52.468Z,89.70
2023-05-24T07:02:24.058Z,89.60
2023-05-24T07:04:53.219Z,89.30
2023-05-24T07:07:20.719Z,88.20
2023-05-24T07:09:48.298Z,86.50
2023-05-24T07:12:15.481Z,85.20
2023-05-24T07:14:42.731Z,83.50
2023-05-24T07:17:09.975Z,81.50
2023-05-24T07:19:37.112Z,79.80
2023-05-24T07:22:05.648Z,80.00
2023-05-24T07:24:33.160Z,78.80
2023-05-24T07:27:00.167Z,78.00
2023-05-24T07:29:27.571Z,78.10
2023-05-24T07:31:56.347Z,79.80
2023-05-24T07:34:24.325Z,80.50
2023-05-24T07:36:51.880Z,80.70
2023-05-24T07:39:20.276Z,80.90
2023-05-24T07:41:47.382Z,82.50
2023-05-24T07:44:14.959Z,81.30
2023-05-24T07:46:42.089Z,81.90
2023-05-24T07:49:09.226Z,82.90
2023-05-24T07:51:36.903Z,82.00
2023-05-24T07:54:04.204Z,81.50
2023-05-24T07:56:32.838Z,80.90
2023-05-24T07:59:05.071Z,80.10
2023-05-24T08:01:32.394Z,81.90
2023-05-24T08:03:59.525Z,82.30
2023-05-24T08:06:27.422Z,83.80
2023-05-24T08:08:55.176Z,85.90
2023-05-24T08:11:22.291Z,87.40
2023-05-24T08:13:50.942Z,88.60
2023-05-24T08:16:18.924Z,89.00
2023-05-24T08:18:46.014Z,89.40
2023-05-24T08:21:13.504Z,89.80
2023-05-24T08:23:41.547Z,89.90
2023-05-24T08:26:08.956Z,90.50
2023-05-24T08:28:36.519Z,90.30
2023-05-24T08:31:05.055Z,89.70
2023-05-24T08:33:32.764Z,89.30
2023-05-24T08:36:00.241Z,89.40
2023-05-24T08:38:28.766Z,90.50
2023-05-24T08:40:56.043Z,90.80
2023-05-24T08:43:24.061Z,90.20
2023-05-24T08:45:53.321Z,90.40
2023-05-24T08:48:22.842Z,90.30
2023-05-24T08:50:58.671Z,90.30
2023-05-24T08:53:27.315Z,90.50
2023-05-24T08:55:56.474Z,90.40
2023-05-24T08:58:23.640Z,90.30
2023-05-24T09:00:50.651Z,90.20
2023-05-24T09:03:18.660Z,89.90
2023-05-24T09:05:47.380Z,89.70
2023-05-24T09:08:18.066Z,90.00
2023-05-24T09:13:20.240Z,89.10
2023-05-24T09:15:47.369Z,87.80
2023-05-24T09:18:14.644Z,87.60
2023-05-24T09:20:42.199Z,86.10
2023-05-24T09:23:12.713Z,86.20
2023-05-24T09:25:44.210Z,85.50
2023-05-24T09:28:14.674Z,85.50
2023-05-24T09:30:44.771Z,86.70
2023-05-24T09:33:13.130Z,87.60
2023-05-24T09:35:43.259Z,87.70
2023-05-24T09:38:19.331Z,87.60
2023-05-24T09:40:47.229Z,87.00
2023-05-24T09:43:14.261Z,87.60
2023-05-24T09:45:47.221Z,88.00
2023-05-24T09:48:18.925Z,87.50
2023-05-24T09:50:58.596Z,88.40
2023-05-24T09:53:27.490Z,88.40
2023-05-24T09:55:55.536Z,88.60
2023-05-24T09:58:23.019Z,88.10
2023-05-24T10:00:50.494Z,87.50
2023-05-24T10:03:17.781Z,86.80
2023-05-24T10:05:46.888Z,86.70
2023-05-24T10:08:14.528Z,86.60
2023-05-24T10:10:44.253Z,86.30
2023-05-24T10:13:12.882Z,89.00
2023-05-24T10:15:39.942Z,87.50
2023-05-24T10:18:10.582Z,86.20
2023-05-24T10:20:38.932Z,85.50
2023-05-24T10:23:09.906Z,85.30
2023-05-24T10:25:48.504Z,86.30
2023-05-24T10:28:16.904Z,86.10
2023-05-24T10:30:55.188Z,86.20
2023-05-24T10:33:24.084Z,85.00
2023-05-24T10:35:53.210Z,83.60
2023-05-24T10:38:22.743Z,84.90
2023-05-24T10:40:51.486Z,84.50
2023-05-24T10:43:18.999Z,83.90
2023-05-24T10:45:50.000Z,83.90
2023-05-24T10:48:37.185Z,83.30
2023-05-24T10:51:35.014Z,85.40
2023-05-24T10:54:14.596Z,85.60
2023-05-24T10:56:48.748Z,85.50
2023-05-24T10:59:37.899Z,84.90
2023-05-24T11:02:10.232Z,84.00
2023-05-24T11:04:40.089Z,83.60
2023-05-24T11:09:59.777Z,84.00
2023-05-24T11:12:38.395Z,83.90
2023-05-24T11:15:10.039Z,83.40
2023-05-24T11:18:17.269Z,83.80
2023-05-24T11:20:47.463Z,82.10
2023-05-24T11:23:16.616Z,83.20
2023-05-24T11:25:43.761Z,81.90
2023-05-24T11:28:12.722Z,81.70
2023-05-24T11:30:41.033Z,81.40
2023-05-24T11:33:17.355Z,82.80
2023-05-24T11:35:45.304Z,82.10
2023-05-24T11:38:16.127Z,80.70
2023-05-24T11:40:45.823Z,79.90
2023-05-24T11:43:16.657Z,80.50
2023-05-24T11:45:46.240Z,82.50
2023-05-24T11:48:13.948Z,83.60
2023-05-24T11:50:49.240Z,84.50
2023-05-24T11:53:21.550Z,84.40
2023-05-24T11:55:48.996Z,84.20
2023-05-24T11:58:25.469Z,83.90
2023-05-24T12:03:38.823Z,83.00
2023-05-24T12:06:07.595Z,83.50
2023-05-24T12:08:34.691Z,83.90
2023-05-24T12:11:03.499Z,83.90
2023-05-24T12:13:31.300Z,83.00
2023-05-24T12:15:58.445Z,82.70
2023-05-24T12:18:27.205Z,83.50
2023-05-24T12:20:54.586Z,83.60
2023-05-24T12:23:28.024Z,82.80
2023-05-24T12:25:59.935Z,83.40
2023-05-24T12:28:27.958Z,81.70
2023-05-24T12:30:55.681Z,83.30
2023-05-24T12:33:24.396Z,85.50
2023-05-24T12:35:53.835Z,86.10
2023-05-24T12:38:25.553Z,86.20
2023-05-24T12:41:08.265Z,85.10
2023-05-24T12:43:41.044Z,86.50
2023-05-24T12:46:08.366Z,86.20
2023-05-24T12:48:35.620Z,86.00
2023-05-24T12:51:03.046Z,86.10
2023-05-24T12:53:31.404Z,85.30
2023-05-24T12:56:00.431Z,86.10
2023-05-24T12:58:27.960Z,86.00
2023-05-24T13:00:55.004Z,86.00
2023-05-24T13:03:22.754Z,86.00
2023-05-24T13:05:49.973Z,86.40
2023-05-24T13:08:17.844Z,85.80
2023-05-24T13:10:46.489Z,86.60
2023-05-24T13:13:13.606Z,86.00
2023-05-24T13:15:41.892Z,86.40
2023-05-24T13:18:09.361Z,86.80
2023-05-24T13:20:37.001Z,86.50
2023-05-24T13:23:04.223Z,87.20
2023-05-24T13:25:31.377Z,86.70
2023-05-24T13:28:00.479Z,87.30
2023-05-24T13:30:28.227Z,87.10
2023-05-24T13:32:56.088Z,87.60
2023-05-24T13:35:23.220Z,86.90
2023-05-24T13:37:51.141Z,87.10
2023-05-24T13:40:18.440Z,87.30
2023-05-24T13:42:45.738Z,88.00
2023-05-24T13:45:14.066Z,87.40
2023-05-24T13:47:41.539Z,86.70
2023-05-24T13:50:11.349Z,86.60
2023-05-24T13:52:38.550Z,86.50
2023-05-24T13:55:07.685Z,86.70
2023-05-24T13:57:50.335Z,87.10
2023-05-24T14:00:21.526Z,87.50
2023-05-24T14:02:49.416Z,87.00
2023-05-24T14:07:47.408Z,87.50
2023-05-24T14:10:15.141Z,87.70
2023-05-24T14:12:42.550Z,87.40
2023-05-24T14:15:11.260Z,87.10
2023-05-24T14:17:39.612Z,86.50
2023-05-24T14:20:08.234Z,87.00
2023-05-24T14:22:35.350Z,86.40
2023-05-24T14:25:02.399Z,86.70
2023-05-24T14:27:29.922Z,86.20
2023-05-24T14:29:56.972Z,86.20
2023-05-24T14:32:24.001Z,87.00
2023-05-24T14:34:54.640Z,86.30
2023-05-24T14:37:22.667Z,86.40
2023-05-24T14:39:49.780Z,86.00
2023-05-24T14:45:01.586Z,85.30
2023-05-24T14:47:28.641Z,85.10
2023-05-24T14:49:57.214Z,84.00
2023-05-24T14:52:24.300Z,83.70
2023-05-24T14:54:51.646Z,83.30
2023-05-24T14:57:19.054Z,84.20
2023-05-24T14:59:46.291Z,84.70
2023-05-24T15:02:13.326Z,84.10
2023-05-24T15:04:40.351Z,84.60
2023-05-24T15:07:09.654Z,85.00
2023-05-24T15:09:36.659Z,84.70
2023-05-24T15:12:05.614Z,84.20
2023-05-24T15:14:32.718Z,84.30
2023-05-24T15:17:00.362Z,83.60
2023-05-24T15:19:28.123Z,83.60
2023-05-24T15:21:55.361Z,83.90
2023-05-24T15:24:23.732Z,82.80
2023-05-24T15:26:51.420Z,83.40
2023-05-24T15:29:19.020Z,82.40
2023-05-24T15:31:46.183Z,82.90
2023-05-24T15:34:13.292Z,83.30
2023-05-24T15:36:41.397Z,83.00
2023-05-24T15:39:08.960Z,83.00
2023-05-24T15:41:38.640Z,83.50
2023-05-24T15:44:08.824Z,83.70
2023-05-24T15:46:36.553Z,83.20
2023-05-24T15:49:03.804Z,82.90
2023-05-24T15:54:00.941Z,82.10
2023-05-24T15:59:14.677Z,83.40
2023-05-24T16:01:42.473Z,82.50
2023-05-24T16:04:10.144Z,82.50
2023-05-24T16:06:37.884Z,82.20
2023-05-24T16:09:06.948Z,82.30
2023-05-24T16:11:34.236Z,82.90
2023-05-24T16:14:01.822Z,83.60
2023-05-24T16:16:30.235Z,83.00
2023-05-24T16:18:57.273Z,83.50
2023-05-24T16:21:24.494Z,84.10
2023-05-24T16:23:52.134Z,83.00
2023-05-24T16:26:19.105Z,82.90
2023-05-24T16:28:46.648Z,83.20
2023-05-24T16:31:15.971Z,83.00
2023-05-24T16:33:45.103Z,83.20
2023-05-24T16:36:12.585Z,82.40
2023-05-24T16:38:39.750Z,83.10
2023-05-24T16:41:06.854Z,82.90
2023-05-24T16:43:34.081Z,83.10
2023-05-24T16:46:01.774Z,82.40
2023-05-24T16:48:29.668Z,82.60
2023-05-24T16:50:58.512Z,81.80
2023-05-24T16:53:26.931Z,80.90
2023-05-24T16:55:55.684Z,81.00
2023-05-24T16:58:24.738Z,80.70
2023-05-24T17:03:38.662Z,80.40
2023-05-24T17:06:07.564Z,80.60
2023-05-24T17:08:36.456Z,81.10
2023-05-24T17:11:03.764Z,81.20
2023-05-24T17:13:31.488Z,81.00
2023-05-24T17:16:00.146Z,80.90
2023-05-24T17:18:27.889Z,81.80
2023-05-24T17:20:55.991Z,81.90
2023-05-24T17:23:25.382Z,81.70
2023-05-24T17:25:52.554Z,81.80
2023-05-24T17:28:19.632Z,81.70
2023-05-24T17:30:47.800Z,81.90
2023-05-24T17:33:14.836Z,82.00
2023-05-24T17:35:43.262Z,81.60
2023-05-24T17:38:10.570Z,81.90
2023-05-24T17:40:38.911Z,82.00
2023-05-24T17:43:06.302Z,82.50
2023-05-24T17:45:33.977Z,82.80
2023-05-24T17:48:01.547Z,83.10
2023-05-24T17:50:28.638Z,84.10
2023-05-24T17:52:56.094Z,83.70
2023-05-24T17:55:23.169Z,84.00
2023-05-24T17:57:51.898Z,84.50
2023-05-24T18:00:20.989Z,84.70
2023-05-24T18:02:48.078Z,85.00
2023-05-24T18:05:16.946Z,84.00
2023-05-24T18:07:44.380Z,84.30
2023-05-24T18:10:12.596Z,84.00
2023-05-24T18:12:40.360Z,84.20
2023-05-24T18:15:10.473Z,83.90
2023-05-24T18:17:37.634Z,83.30
2023-05-24T18:22:50.927Z,84.30
2023-05-24T18:25:18.411Z,85.00
2023-05-24T18:27:45.773Z,85.50
2023-05-24T18:30:15.124Z,85.60
2023-05-24T18:32:52.029Z,85.90
2023-05-24T18:35:29.026Z,86.20
2023-05-24T18:37:56.196Z,86.60
2023-05-24T18:40:26.190Z,86.60
2023-05-24T18:42:53.687Z,86.90
2023-05-24T18:45:22.748Z,87.30
2023-05-24T18:47:50.144Z,87.50
2023-05-24T18:50:23.304Z,87.50
2023-05-24T18:52:50.767Z,87.80
2023-05-24T18:55:18.154Z,88.10
2023-05-24T18:57:45.290Z,88.30
2023-05-24T19:00:13.771Z,88.60
2023-05-24T19:02:42.180Z,89.20
2023-05-24T19:05:10.139Z,89.30
2023-05-24T19:07:37.394Z,89.50
2023-05-24T19:10:05.738Z,89.30
2023-05-24T19:12:32.708Z,89.50
2023-05-24T19:15:00.111Z,89.60
2023-05-24T19:17:27.656Z,89.90
2023-05-24T19:19:55.999Z,90.00
2023-05-24T19:22:23.473Z,90.00
2023-05-24T19:24:50.585Z,90.20
2023-05-24T19:27:17.661Z,90.30
2023-05-24T19:29:45.079Z,90.50
2023-05-24T19:32:12.226Z,90.60
2023-05-24T19:34:42.659Z,90.70
2023-05-24T19:37:11.106Z,90.70
2023-05-24T19:39:38.553Z,90.70
2023-05-24T19:42:06.630Z,90.70
2023-05-24T19:44:34.144Z,90.80
2023-05-24T19:47:01.177Z,90.80
2023-05-24T19:49:28.687Z,90.90
2023-05-24T19:51:56.106Z,90.90
2023-05-24T19:54:24.437Z,91.20
2023-05-24T19:56:51.987Z,91.20
2023-05-24T19:59:19.103Z,91.50
2023-05-24T20:01:46.160Z,91.50
2023-05-24T20:04:13.712Z,91.80
2023-05-24T20:06:41.492Z,91.90
2023-05-24T20:09:09.033Z,91.50
2023-05-24T20:11:37.480Z,91.50
2023-05-24T20:14:04.866Z,91.70
2023-05-24T20:16:32.007Z,92.10
2023-05-24T20:18:59.067Z,92.20
2023-05-24T20:21:26.636Z,92.20
2023-05-24T20:23:57.757Z,92.50
2023-05-24T20:26:26.200Z,92.30
2023-05-24T20:28:54.685Z,92.50
2023-05-24T20:31:21.990Z,92.40
2023-05-24T20:33:51.965Z,92.30
2023-05-24T20:36:18.933Z,92.50
2023-05-24T20:38:46.290Z,92.70
2023-05-24T20:41:13.287Z,92.80
2023-05-24T20:43:40.361Z,92.80
2023-05-24T20:46:08.917Z,92.90
2023-05-24T20:48:35.964Z,92.80
2023-05-24T20:51:03.924Z,92.90
2023-05-24T20:53:30.977Z,92.90
2023-05-24T20:55:58.060Z,93.10
2023-05-24T20:58:25.733Z,93.20
2023-05-24T21:00:53.006Z,93.20
2023-05-24T21:03:21.401Z,93.20
2023-05-24T21:05:49.073Z,93.40
2023-05-24T21:08:16.710Z,93.30
2023-05-24T21:10:43.744Z,93.40
2023-05-24T21:13:11.247Z,93.50
2023-05-24T21:15:38.340Z,93.40
2023-05-24T21:18:05.361Z,93.60
2023-05-24T21:20:34.213Z,93.70
2023-05-24T21:23:01.869Z,93.70
2023-05-24T21:25:28.980Z,93.70
2023-05-24T21:27:56.656Z,94.00
2023-05-24T21:30:23.810Z,93.80
2023-05-24T21:32:50.975Z,94.00
2023-05-24T21:35:18.194Z,93.80
2023-05-24T21:37:46.546Z,93.60
2023-05-24T21:40:14.319Z,93.70
2023-05-24T21:42:41.344Z,93.80
2023-05-24T21:45:09.922Z,93.70
2023-05-24T21:47:36.966Z,93.80
2023-05-24T21:50:05.293Z,93.90
2023-05-24T21:52:32.909Z,93.80
2023-05-24T21:57:46.150Z,93.80
2023-05-24T22:00:15.463Z,93.90
2023-05-24T22:02:42.677Z,93.90
2023-05-24T22:05:10.036Z,93.90
2023-05-24T22:07:37.549Z,94.00
2023-05-24T22:10:08.004Z,94.10
2023-05-24T22:12:36.106Z,94.10
2023-05-24T22:15:03.324Z,93.90
2023-05-24T22:17:33.260Z,94.00
2023-05-24T22:20:01.834Z,94.30
2023-05-24T22:22:29.777Z,94.40
2023-05-24T22:24:57.468Z,94.90
2023-05-24T22:27:26.374Z,95.20
2023-05-24T22:29:53.446Z,95.50
2023-05-24T22:32:20.635Z,95.10
2023-05-24T22:34:48.182Z,95.20
2023-05-24T22:37:18.235Z,95.00
2023-05-24T22:39:45.823Z,95.10
2023-05-24T22:42:12.825Z,95.10
2023-05-24T22:44:41.805Z,95.30
2023-05-24T22:47:08.868Z,95.30
2023-05-24T22:49:36.362Z,95.50
2023-05-24T22:52:05.092Z,95.50
2023-05-24T22:54:32.573Z,95.60
2023-05-24T22:57:00.166Z,95.80
2023-05-24T22:59:27.157Z,95.90
2023-05-24T23:01:56.153Z,95.90
2023-05-24T23:04:23.252Z,96.00
2023-05-24T23:06:52.840Z,96.20
2023-05-24T23:09:42.003Z,96.40
2023-05-24T23:12:09.854Z,96.50
2023-05-24T23:14:38.563Z,96.60
2023-05-24T23:17:10.727Z,96.60
2023-05-24T23:19:42.249Z,96.50
2023-05-24T23:22:12.320Z,96.80
2023-05-24T23:24:39.533Z,96.90
2023-05-24T23:27:07.008Z,97.00
2023-05-24T23:29:34.569Z,97.00
2023-05-24T23:32:02.411Z,97.10
2023-05-24T23:34:33.789Z,97.20
2023-05-24T23:37:01.704Z,97.10
2023-05-24T23:39:29.304Z,97.60
2023-05-24T23:41:56.422Z,97.60
2023-05-24T23:44:24.251Z,97.90
2023-05-24T23:46:51.431Z,98.00
2023-05-24T23:49:18.984Z,98.10
2023-05-24T23:51:47.324Z,98.30
2023-05-24T23:54:19.648Z,98.40
2023-05-24T23:56:46.987Z,98.30
2023-05-24T23:59:14.652Z,98.40
